Weather reports worldwide

Advertisment
Konnerud, Norway (1477): temperature & dewpoint: 20.06.2019 17:00:00 - 26.06.2019 17:00:00 (CEST)Konnerud, Norway (1477): wind speed & gusts: 20.06.2019 17:00:00 - 26.06.2019 17:00:00 (CEST)Konnerud, Norway (1477): wind direction: 20.06.2019 17:00:00 - 26.06.2019 17:00:00 (CEST)Konnerud, Norway (1477): precipitation: 20.06.2019 17:00:00 - 26.06.2019 17:00:00 (CEST)
Date & Time tt [°C] td [°C] ff [km/h] ff [kn] fx [km/h] fx [kn] dd rr [mm]
26.06.2019 17:00:00 - - - - - - - -
26.06.2019 16:00:00 23,4 13,3 5 3 11 6 WNW 0,0
26.06.2019 15:00:00 21,2 14,1 4 2 11 6 NNW 0,0
26.06.2019 14:00:00 20,4 13,8 4 2 - - W 0,0
26.06.2019 13:00:00 19,5 14,7 4 2 10 5 N 0,0
26.06.2019 12:00:00 20,0 14,1 6 3 16 8 ENE 0,0
26.06.2019 11:00:00 18,8 13,0 5 3 13 7 ENE 0,0
26.06.2019 10:00:00 16,6 13,0 5 3 9 5 NNE 0,0
26.06.2019 09:00:00 16,2 12,7 4 2 10 5 NW 0,0
26.06.2019 08:00:00 13,2 12,7 1 1 - - NNW 0,0
26.06.2019 07:00:00 12,2 12,0 1 1 5 3 N 0,0
26.06.2019 06:00:00 11,5 11,4 1 1 6 3 N 0,0
26.06.2019 05:00:00 11,2 11,0 1 0 7 4 N 0,0
26.06.2019 04:00:00 11,1 11,0 1 1 5 3 NNW 0,0
26.06.2019 03:00:00 11,0 10,7 1 1 3 2 NW 0,0
26.06.2019 02:00:00 11,1 10,8 2 1 - - WNW 0,0
26.06.2019 01:00:00 11,0 10,7 2 1 5 3 NW 0,0
26.06.2019 00:00:00 11,0 10,5 0 0 6 3 N 0,0
25.06.2019 23:00:00 11,4 10,9 3 1 5 3 WNW 0,0
25.06.2019 22:00:00 11,8 11,0 1 1 8 4 NE 0,0
25.06.2019 21:00:00 11,9 10,3 4 2 9 5 N 0,0
25.06.2019 20:00:00 12,5 11,1 2 1 - - WNW 0,0
25.06.2019 19:00:00 12,2 10,6 1 0 3 2 N 0,0
25.06.2019 18:00:00 12,2 11,3 1 1 6 3 S 0,0
25.06.2019 17:00:00 12,7 11,9 3 2 8 5 NW 0,0
25.06.2019 16:00:00 12,7 11,8 3 1 5 3 NW 0,0
25.06.2019 15:00:00 13,0 12,1 2 1 6 3 W 0,0
25.06.2019 14:00:00 14,8 13,4 1 1 - - N 0,0
25.06.2019 13:00:00 14,7 12,9 3 2 8 4 N 0,0
25.06.2019 12:00:00 15,9 11,5 3 2 10 5 WNW 0,0
25.06.2019 11:00:00 15,6 11,4 4 2 9 5 NW 0,0
25.06.2019 10:00:00 15,4 10,6 3 1 9 5 NNE 0,0
25.06.2019 09:00:00 14,7 10,9 3 1 6 3 NW 0,0
25.06.2019 08:00:00 14,2 11,4 3 1 - - WNW 0,0
25.06.2019 07:00:00 13,7 11,7 1 1 8 5 N 0,0
25.06.2019 06:00:00 12,9 11,1 1 0 4 2 NNW 0,0
25.06.2019 05:00:00 13,0 11,1 3 1 5 3 WNW 0,0
25.06.2019 04:00:00 13,3 11,4 2 1 5 3 NW 0,0
25.06.2019 03:00:00 13,4 11,1 3 2 5 3 NW 0,0
25.06.2019 02:00:00 13,4 11,3 1 1 - - NNW 0,0
25.06.2019 01:00:00 13,7 11,7 2 1 5 3 NW 0,0
25.06.2019 00:00:00 13,9 11,6 1 1 5 3 NW 0,0
24.06.2019 23:00:00 15,1 12,0 2 1 5 3 NW 0,0
24.06.2019 22:00:00 16,7 13,0 2 1 3 2 WNW 0,0
24.06.2019 21:00:00 17,8 12,5 1 1 7 4 WNW 0,0
24.06.2019 20:00:00 19,8 8,8 5 3 - - ESE 0,0
24.06.2019 19:00:00 20,4 8,4 4 2 15 8 SE 0,0
24.06.2019 18:00:00 20,7 7,4 8 5 23 12 S 0,0
24.06.2019 17:00:00 21,7 8,2 8 4 16 9 SSE 0,0
24.06.2019 16:00:00 20,4 6,0 9 5 18 10 SSE 0,0
24.06.2019 15:00:00 21,6 7,1 9 5 21 12 SE 0,0
24.06.2019 14:00:00 21,7 8,6 7 4 - - E 0,0
24.06.2019 13:00:00 20,7 7,0 6 4 16 8 SE 0,0
24.06.2019 12:00:00 19,7 7,1 7 4 16 9 S 0,0
24.06.2019 11:00:00 19,4 6,9 3 2 10 5 WSW 0,0
24.06.2019 10:00:00 18,2 7,0 5 3 11 6 NW 0,0
24.06.2019 09:00:00 16,2 6,6 4 2 12 6 NNW 0,0
24.06.2019 08:00:00 13,6 7,2 3 2 - - NNW 0,0
24.06.2019 07:00:00 12,7 7,8 3 1 7 4 N 0,0
24.06.2019 06:00:00 9,1 8,0 1 1 4 2 WNW 0,0
24.06.2019 05:00:00 7,5 6,9 1 0 8 5 NNW 0,0
24.06.2019 04:00:00 6,8 6,1 1 1 7 4 WNW 0,0
24.06.2019 03:00:00 7,1 6,4 1 0 8 4 SSE 0,0
24.06.2019 02:00:00 8,4 6,9 3 1 - - NW 0,0
24.06.2019 01:00:00 8,5 7,1 2 1 8 5 NW 0,0
24.06.2019 00:00:00 9,2 8,1 4 2 9 5 N 0,0
23.06.2019 23:00:00 10,3 8,6 2 1 7 4 NNW 0,0
23.06.2019 22:00:00 12,8 9,3 3 2 5 3 NW 0,0
23.06.2019 21:00:00 15,9 9,8 2 1 6 3 WNW 0,0
23.06.2019 20:00:00 18,6 4,0 1 1 - - NNE 0,0
23.06.2019 19:00:00 19,5 6,3 5 3 13 7 W 0,0
23.06.2019 18:00:00 18,5 5,7 5 3 16 8 W 0,0
23.06.2019 17:00:00 19,2 3,8 5 3 10 5 NNE 0,0
23.06.2019 16:00:00 20,1 4,6 3 2 12 6 N 0,0
23.06.2019 15:00:00 20,2 5,1 4 2 16 9 WNW 0,0
23.06.2019 14:00:00 20,0 4,9 5 3 - - WNW 0,0
23.06.2019 13:00:00 19,1 4,5 6 4 21 11 NNW 0,0
23.06.2019 12:00:00 18,4 4,2 8 4 20 11 WNW 0,0
23.06.2019 11:00:00 17,0 2,6 6 3 17 9 W 0,0
23.06.2019 10:00:00 16,1 4,2 7 4 21 11 WNW 0,0
23.06.2019 09:00:00 14,8 4,2 5 3 12 6 NW 0,0
23.06.2019 08:00:00 14,2 4,2 4 2 - - W 0,0
23.06.2019 07:00:00 10,1 8,4 1 1 4 2 ENE 0,0
23.06.2019 06:00:00 5,9 5,8 1 1 3 2 ENE 0,0
23.06.2019 05:00:00 3,8 3,5 1 1 4 2 NNW 0,0
23.06.2019 04:00:00 4,0 3,7 1 1 4 2 E 0,0
23.06.2019 03:00:00 4,2 3,8 1 1 3 2 WNW 0,0
23.06.2019 02:00:00 4,8 3,9 2 1 - - WNW 0,0
23.06.2019 01:00:00 6,0 4,7 2 1 4 2 NW 0,0
23.06.2019 00:00:00 7,4 5,0 1 1 5 3 WNW 0,0
22.06.2019 23:00:00 9,1 5,7 2 1 8 4 NNW 0,0
22.06.2019 22:00:00 12,4 5,6 3 2 20 11 WNW 0,0
22.06.2019 21:00:00 16,3 2,7 7 4 16 8 WNW 0,0
22.06.2019 20:00:00 17,2 2,4 5 3 - - W 0,0
22.06.2019 19:00:00 18,2 2,1 6 3 15 8 W 0,0
22.06.2019 18:00:00 18,5 2,8 6 3 20 11 W 0,0
22.06.2019 17:00:00 19,5 1,5 7 4 20 11 W 0,0
22.06.2019 16:00:00 20,6 3,4 8 5 24 13 W 0,0
22.06.2019 15:00:00 19,3 2,2 9 5 31 17 WNW 0,0
22.06.2019 14:00:00 18,7 2,5 8 4 - - WNW 0,0
22.06.2019 13:00:00 18,1 3,6 6 3 23 12 W 0,0
22.06.2019 12:00:00 19,6 3,7 6 4 22 12 WSW 0,0
22.06.2019 11:00:00 18,2 4,8 5 3 25 14 NW 0,0
22.06.2019 10:00:00 16,7 4,7 9 5 23 12 NW 0,0
22.06.2019 09:00:00 15,4 4,5 7 4 19 10 W 0,0
22.06.2019 08:00:00 14,3 4,0 6 3 - - WNW 0,0
22.06.2019 07:00:00 10,8 3,8 2 1 8 4 NNW 0,0
22.06.2019 06:00:00 6,6 5,7 3 1 5 3 E 0,0
22.06.2019 05:00:00 5,0 4,1 1 1 6 3 NNW 0,0
22.06.2019 04:00:00 6,4 4,1 1 1 9 5 NNW 0,0
22.06.2019 03:00:00 9,4 3,2 3 2 21 11 W 0,0
22.06.2019 02:00:00 10,2 3,3 7 4 - - WNW 0,0
22.06.2019 01:00:00 10,9 3,5 10 5 21 12 WNW 0,0
22.06.2019 00:00:00 11,0 4,0 9 5 18 10 W 0,0
21.06.2019 23:00:00 7,8 7,2 3 1 7 4 WNW 0,0
21.06.2019 22:00:00 9,7 8,8 2 1 10 5 NW 0,0
21.06.2019 21:00:00 12,4 8,1 4 2 13 7 SW 0,0
21.06.2019 20:00:00 13,9 9,2 3 2 - - WSW 0,0
21.06.2019 19:00:00 13,2 9,3 3 2 16 9 NNW 1,0
21.06.2019 18:00:00 12,0 7,3 9 5 27 14 W 1,0
21.06.2019 17:00:00 15,9 7,9 10 6 25 14 S 0,0
21.06.2019 16:00:00 15,8 7,6 8 5 34 19 S 0,0
21.06.2019 15:00:00 17,1 6,3 11 6 31 17 S 0,0
21.06.2019 14:00:00 18,4 5,3 13 7 - - S 0,0
21.06.2019 13:00:00 18,4 4,2 9 5 28 15 WSW 0,0
21.06.2019 12:00:00 18,3 4,5 11 6 31 17 SW 0,0
21.06.2019 11:00:00 17,1 5,1 8 4 23 13 WSW 0,0
21.06.2019 10:00:00 16,5 4,9 8 4 24 13 W 0,0
21.06.2019 09:00:00 15,9 5,5 8 4 24 13 W 0,0
21.06.2019 08:00:00 14,7 6,3 9 5 - - W 0,0
21.06.2019 07:00:00 10,6 10,5 3 1 6 3 SE 0,0
21.06.2019 06:00:00 7,8 7,7 1 1 5 3 NNW 0,0
21.06.2019 05:00:00 6,2 6,0 2 1 5 3 NW 0,0
21.06.2019 04:00:00 6,9 6,6 2 1 5 3 NW 0,0
21.06.2019 03:00:00 8,1 7,8 2 1 6 3 NW 0,0
21.06.2019 02:00:00 9,9 9,6 1 1 - - NNW 0,0
21.06.2019 01:00:00 10,5 10,0 0 0 6 3 N 0,0
21.06.2019 00:00:00 12,7 12,1 3 1 13 7 WSW 0,0
20.06.2019 23:00:00 13,7 12,9 4 2 12 7 S 0,0
20.06.2019 22:00:00 14,7 12,9 4 2 13 7 SSE 0,0
20.06.2019 21:00:00 16,3 13,0 6 3 16 9 SSE 0,0
20.06.2019 20:00:00 17,2 13,5 6 3 - - S 0,0
20.06.2019 19:00:00 16,6 13,7 9 5 21 12 SE 0,0
20.06.2019 18:00:00 17,1 13,4 5 3 15 8 SE 0,0
20.06.2019 17:00:00 16,7 14,0 6 3 14 8 SSE 0,0

tt = temperature
td = dewpoint
ff = wind speed
fx = gusts
dd = wind direction
rr = precipitation

Next stations